Time;durP1;ratioP1;P1;durP2;ratioP2;P2;SDS_P1;SDS_P2;PMS_P1;PMS_P2;Temp;Humidity;BMP_temperature;BMP_pressure;BME280_temperature;BME280_humidity;BME280_pressure;Samples;Min_cycle;Max_cycle;Signal;HPM_P1;HPM_P2
2023/12/04 00:01:48;;;;;;;;;;;;;;;;;;5047306;28;19924;-68
2023/12/04 00:04:15;;;;;;;;;;;;;;;;;;5050237;28;19925;-68
2023/12/04 00:06:43;;;;;;;;;;;;;;;;;;5050506;28;19931;-69
2023/12/04 00:09:10;;;;;;;;;;;;;;;;;;5052107;28;20364;-69
2023/12/04 00:11:37;;;;;;;;;;;;;;;;;;5051169;28;19925;-68
2023/12/04 00:14:04;;;;;;;;;;;;;;;;;;5051902;28;19932;-69
2023/12/04 00:16:31;;;;;;;;;;;;;;;;;;5053728;28;20276;-68
2023/12/04 00:18:58;;;;;;;;;;;;;;;;;;5045768;28;19931;-69
2023/12/04 00:21:25;;;;;;;;;;;;;;;;;;5045963;28;19925;-69
2023/12/04 00:23:52;;;;;;;;;;;;;;;;;;5043752;28;19933;-67
2023/12/04 00:26:19;;;;;;;;;;;;;;;;;;5045724;28;19924;-68
2023/12/04 00:28:46;;;;;;;;;;;;;;;;;;5042253;28;19935;-68
2023/12/04 00:31:13;;;;;;;;;;;;;;;;;;5051699;28;19943;-68
2023/12/04 00:33:40;;;;;;;;;;;;;;;;;;5050666;28;19932;-68
2023/12/04 00:36:07;;;;;;;;;;;;;;;;;;5052322;28;19925;-68
2023/12/04 00:38:35;;;;;;;;;;;;;;;;;;5043919;28;20338;-67
2023/12/04 00:41:02;;;;;;;;;;;;;;;;;;5052293;28;19928;-67
2023/12/04 00:43:29;;;;;;;;;;;;;;;;;;5051687;28;20268;-67
2023/12/04 00:45:56;;;;;;;;;;;;;;;;;;5050605;28;19925;-68
2023/12/04 00:48:23;;;;;;;;;;;;;;;;;;5048782;28;19970;-68
2023/12/04 00:50:50;;;;;;;;;;;;;;;;;;5051248;28;20296;-67
2023/12/04 00:53:17;;;;;;;;;;;;;;;;;;5047080;28;19929;-67
2023/12/04 00:55:44;;;;;;;;;;;;;;;;;;5048106;28;19978;-68
2023/12/04 00:58:11;;;;;;;;;;;;;;;;;;5048822;28;19929;-68
2023/12/04 01:00:38;;;;;;;;;;;;;;;;;;5048460;28;19933;-68
2023/12/04 01:03:05;;;;;;;;;;;;;;;;;;5049641;28;19925;-67
2023/12/04 01:05:32;;;;;;;;;;;;;;;;;;5049501;28;20296;-67
2023/12/04 01:07:59;;;;;;;;;;;;;;;;;;5056180;28;19978;-67
2023/12/04 01:10:26;;;;;;;;;;;;;;;;;;5051370;28;19924;-67
2023/12/04 01:12:53;;;;;;;;;;;;;;;;;;5049229;28;20273;-67
2023/12/04 01:15:20;;;;;;;;;;;;;;;;;;5047971;28;19932;-67
2023/12/04 01:17:47;;;;;;;;;;;;;;;;;;5051235;28;19978;-68
2023/12/04 01:20:14;;;;;;;;;;;;;;;;;;5049971;28;19928;-67
2023/12/04 01:22:41;;;;;;;;;;;;;;;;;;5051410;28;19982;-67
2023/12/04 01:25:08;;;;;;;;;;;;;;;;;;5051733;28;20457;-67
2023/12/04 01:27:37;;;;;;;;;;;;;;;;;;5058515;28;19928;-67
2023/12/04 01:30:04;;;;;;;;;;;;;;;;;;5056969;28;20015;-67
2023/12/04 01:32:31;;;;;;;;;;;;;;;;;;5046098;28;19952;-67
2023/12/04 01:34:58;;;;;;;;;;;;;;;;;;5050795;28;19964;-68
2023/12/04 01:37:25;;;;;;;;;;;;;;;;;;5052748;28;19925;-68
2023/12/04 01:39:52;;;;;;;;;;;;;;;;;;5046818;28;19979;-68
2023/12/04 01:42:19;;;;;;;;;;;;;;;;;;5050248;28;20347;-68
2023/12/04 01:44:46;;;;;;;;;;;;;;;;;;5052917;28;19924;-68
2023/12/04 01:47:13;;;;;;;;;;;;;;;;;;5060086;28;20441;-69
2023/12/04 01:49:40;;;;;;;;;;;;;;;;;;5046402;28;19924;-68
2023/12/04 01:52:08;;;;;;;;;;;;;;;;;;5049369;28;19939;-68
2023/12/04 01:54:34;;;;;;;;;;;;;;;;;;5050911;28;19939;-68
2023/12/04 01:57:02;;;;;;;;;;;;;;;;;;5051172;28;19929;-68
2023/12/04 01:59:29;;;;;;;;;;;;;;;;;;5050416;28;19987;-68
2023/12/04 02:01:56;;;;;;;;;;;;;;;;;;5048169;28;19932;-68
2023/12/04 02:04:23;;;;;;;;;;;;;;;;;;5037594;28;19964;-68
2023/12/04 02:06:50;;;;;;;;;;;;;;;;;;5037901;28;20021;-68
2023/12/04 02:09:17;;;;;;;;;;;;;;;;;;5050309;28;19980;-67
2023/12/04 02:11:44;;;;;;;;;;;;;;;;;;5048254;28;19940;-68
2023/12/04 02:14:11;;;;;;;;;;;;;;;;;;5049332;28;20375;-68
2023/12/04 02:16:38;;;;;;;;;;;;;;;;;;5053212;28;19924;-67
2023/12/04 02:19:05;;;;;;;;;;;;;;;;;;5049881;28;19986;-68
2023/12/04 02:21:32;;;;;;;;;;;;;;;;;;5050980;28;19980;-68
2023/12/04 02:23:59;;;;;;;;;;;;;;;;;;5049261;28;19983;-68
2023/12/04 02:26:26;;;;;;;;;;;;;;;;;;5046620;28;19939;-67
2023/12/04 02:28:53;;;;;;;;;;;;;;;;;;5042296;28;19925;-68
2023/12/04 02:31:20;;;;;;;;;;;;;;;;;;5049482;28;19960;-68
2023/12/04 02:33:47;;;;;;;;;;;;;;;;;;5052648;28;19970;-67
2023/12/04 02:36:14;;;;;;;;;;;;;;;;;;5054137;28;19928;-68
2023/12/04 02:38:41;;;;;;;;;;;;;;;;;;5053023;28;20376;-68
2023/12/04 02:41:08;;;;;;;;;;;;;;;;;;5055383;28;20372;-68
2023/12/04 02:43:35;;;;;;;;;;;;;;;;;;5050747;28;19931;-68
2023/12/04 02:46:02;;;;;;;;;;;;;;;;;;5052858;28;20339;-68
2023/12/04 02:48:29;;;;;;;;;;;;;;;;;;5053615;28;19935;-68
2023/12/04 02:50:56;;;;;;;;;;;;;;;;;;5055696;28;19925;-68
2023/12/04 02:53:23;;;;;;;;;;;;;;;;;;5050023;28;19994;-68
2023/12/04 02:55:50;;;;;;;;;;;;;;;;;;5053083;28;19928;-67
2023/12/04 02:58:17;;;;;;;;;;;;;;;;;;5045753;28;19929;-68
2023/12/04 03:00:44;;;;;;;;;;;;;;;;;;5050441;28;20038;-69
2023/12/04 03:03:11;;;;;;;;;;;;;;;;;;5055651;28;20449;-68
2023/12/04 03:05:38;;;;;;;;;;;;;;;;;;5065236;28;19925;-69
2023/12/04 03:08:05;;;;;;;;;;;;;;;;;;5052022;28;19925;-68
2023/12/04 03:10:33;;;;;;;;;;;;;;;;;;5051759;28;20453;-68
2023/12/04 03:13:00;;;;;;;;;;;;;;;;;;5052178;28;19925;-68
2023/12/04 03:15:28;;;;;;;;;;;;;;;;;;5057344;28;19932;-69
2023/12/04 03:17:55;;;;;;;;;;;;;;;;;;5065442;28;20011;-67
2023/12/04 03:20:22;;;;;;;;;;;;;;;;;;5052904;28;20379;-66
2023/12/04 03:22:49;;;;;;;;;;;;;;;;;;5054625;28;19925;-69
2023/12/04 03:25:16;;;;;;;;;;;;;;;;;;5044252;28;19975;-69
2023/12/04 03:27:43;;;;;;;;;;;;;;;;;;5052740;28;19926;-69
2023/12/04 03:30:10;;;;;;;;;;;;;;;;;;5050186;28;19925;-66
2023/12/04 03:32:37;;;;;;;;;;;;;;;;;;5051987;28;19929;-68
2023/12/04 03:35:04;;;;;;;;;;;;;;;;;;5040565;28;20334;-67
2023/12/04 03:37:31;;;;;;;;;;;;;;;;;;5050301;28;19971;-69
2023/12/04 03:39:58;;;;;;;;;;;;;;;;;;5052666;28;19940;-67
2023/12/04 03:42:25;;;;;;;;;;;;;;;;;;5047896;28;19924;-69
2023/12/04 03:44:52;;;;;;;;;;;;;;;;;;5051779;28;19925;-66
2023/12/04 03:47:20;;;;;;;;;;;;;;;;;;5052051;28;19979;-67
2023/12/04 03:49:47;;;;;;;;;;;;;;;;;;5042962;28;20020;-67
2023/12/04 03:52:14;;;;;;;;;;;;;;;;;;5051807;28;20019;-68
2023/12/04 03:54:42;;;;;;;;;;;;;;;;;;5053040;28;20395;-67
2023/12/04 03:57:09;;;;;;;;;;;;;;;;;;5053201;28;19983;-67
2023/12/04 03:59:36;;;;;;;;;;;;;;;;;;5053195;28;19925;-67
2023/12/04 04:02:03;;;;;;;;;;;;;;;;;;5046137;28;20395;-67
2023/12/04 04:04:30;;;;;;;;;;;;;;;;;;5050865;28;19978;-67
2023/12/04 04:06:57;;;;;;;;;;;;;;;;;;5052953;28;20372;-68
2023/12/04 04:09:24;;;;;;;;;;;;;;;;;;5052989;28;19970;-68
2023/12/04 04:11:51;;;;;;;;;;;;;;;;;;5050505;28;19948;-68
2023/12/04 04:14:18;;;;;;;;;;;;;;;;;;5057656;28;19925;-67
2023/12/04 04:16:45;;;;;;;;;;;;;;;;;;5051931;28;19932;-67
2023/12/04 04:19:12;;;;;;;;;;;;;;;;;;5051111;28;20406;-68
2023/12/04 04:21:39;;;;;;;;;;;;;;;;;;5051224;28;19925;-68
2023/12/04 04:24:06;;;;;;;;;;;;;;;;;;5051838;28;19931;-67
2023/12/04 04:26:33;;;;;;;;;;;;;;;;;;5058117;28;19929;-68
2023/12/04 04:29:00;;;;;;;;;;;;;;;;;;5051732;28;19924;-67
2023/12/04 04:31:27;;;;;;;;;;;;;;;;;;5046269;28;19936;-67
2023/12/04 04:33:54;;;;;;;;;;;;;;;;;;5049986;28;19925;-67
2023/12/04 04:36:21;;;;;;;;;;;;;;;;;;5051705;28;20295;-67
2023/12/04 04:38:48;;;;;;;;;;;;;;;;;;5051425;28;19925;-67
2023/12/04 04:41:16;;;;;;;;;;;;;;;;;;5052682;28;20012;-68
2023/12/04 04:43:43;;;;;;;;;;;;;;;;;;5050488;28;19979;-66
2023/12/04 04:46:10;;;;;;;;;;;;;;;;;;5052037;28;20016;-67
2023/12/04 04:48:37;;;;;;;;;;;;;;;;;;5052285;28;19925;-67
2023/12/04 04:51:04;;;;;;;;;;;;;;;;;;5053437;28;19929;-67
2023/12/04 04:53:31;;;;;;;;;;;;;;;;;;5050470;28;19932;-67
2023/12/04 04:55:58;;;;;;;;;;;;;;;;;;5048727;28;19933;-67
2023/12/04 04:58:25;;;;;;;;;;;;;;;;;;5045518;28;21222;-67
2023/12/04 05:00:52;;;;;;;;;;;;;;;;;;5050536;28;19929;-66
2023/12/04 05:03:19;;;;;;;;;;;;;;;;;;5048347;28;19978;-66
2023/12/04 05:05:46;;;;;;;;;;;;;;;;;;5048625;28;20433;-66
2023/12/04 05:08:13;;;;;;;;;;;;;;;;;;5044373;28;19928;-67
2023/12/04 05:10:40;;;;;;;;;;;;;;;;;;5049331;28;19936;-68
2023/12/04 05:13:07;;;;;;;;;;;;;;;;;;5050543;28;19934;-67
2023/12/04 05:15:34;;;;;;;;;;;;;;;;;;5051371;28;19928;-68
2023/12/04 05:18:01;;;;;;;;;;;;;;;;;;5050853;28;19956;-67
2023/12/04 05:20:28;;;;;;;;;;;;;;;;;;5049145;28;19925;-68
2023/12/04 05:22:55;;;;;;;;;;;;;;;;;;5049296;28;19925;-68
2023/12/04 05:25:22;;;;;;;;;;;;;;;;;;5046847;28;20036;-69
2023/12/04 05:27:50;;;;;;;;;;;;;;;;;;5050468;28;19925;-68
2023/12/04 05:30:17;;;;;;;;;;;;;;;;;;5042801;28;19925;-68
2023/12/04 05:32:44;;;;;;;;;;;;;;;;;;5047163;28;19947;-68
2023/12/04 05:35:11;;;;;;;;;;;;;;;;;;5043586;28;19970;-69
2023/12/04 05:37:38;;;;;;;;;;;;;;;;;;5046141;28;20376;-68
2023/12/04 05:40:05;;;;;;;;;;;;;;;;;;5050426;28;19928;-69
2023/12/04 05:42:32;;;;;;;;;;;;;;;;;;5051248;28;20311;-69
2023/12/04 05:45:00;;;;;;;;;;;;;;;;;;5049296;28;19978;-70
2023/12/04 05:47:27;;;;;;;;;;;;;;;;;;5048921;28;19932;-69
2023/12/04 05:49:54;;;;;;;;;;;;;;;;;;5052486;28;19932;-68
2023/12/04 05:52:21;;;;;;;;;;;;;;;;;;5055818;28;19925;-69
2023/12/04 05:54:48;;;;;;;;;;;;;;;;;;5047999;28;19925;-68
2023/12/04 05:57:16;;;;;;;;;;;;;;;;;;5049810;28;20406;-69
2023/12/04 05:59:43;;;;;;;;;;;;;;;;;;5049349;28;19932;-68
2023/12/04 06:02:10;;;;;;;;;;;;;;;;;;5048273;28;19980;-69
2023/12/04 06:04:37;;;;;;;;;;;;;;;;;;5059791;28;20294;-67
2023/12/04 06:07:04;;;;;;;;;;;;;;;;;;5052239;28;19925;-69
2023/12/04 06:09:31;;;;;;;;;;;;;;;;;;5061325;28;20306;-69
2023/12/04 06:12:04;;;;;;;;;;;;;;;;;;5052246;28;19929;-69
2023/12/04 06:14:31;;;;;;;;;;;;;;;;;;5070555;28;19925;-69
2023/12/04 06:16:58;;;;;;;;;;;;;;;;;;5054534;28;19932;-68
2023/12/04 06:19:25;;;;;;;;;;;;;;;;;;5048017;28;19932;-68
2023/12/04 06:21:53;;;;;;;;;;;;;;;;;;5039203;28;19929;-68
2023/12/04 06:24:21;;;;;;;;;;;;;;;;;;5056408;28;19931;-69
2023/12/04 06:26:48;;;;;;;;;;;;;;;;;;5056670;28;20467;-68
2023/12/04 06:29:15;;;;;;;;;;;;;;;;;;5053542;28;19928;-68
2023/12/04 06:31:42;;;;;;;;;;;;;;;;;;5068901;28;19925;-68
2023/12/04 06:34:09;;;;;;;;;;;;;;;;;;5057956;28;19925;-68
2023/12/04 06:36:36;;;;;;;;;;;;;;;;;;5049320;28;20382;-68
2023/12/04 06:39:04;;;;;;;;;;;;;;;;;;5053966;28;19925;-69
2023/12/04 06:41:31;;;;;;;;;;;;;;;;;;5054267;28;19979;-68
2023/12/04 06:43:58;;;;;;;;;;;;;;;;;;5055998;28;19944;-68
2023/12/04 06:46:24;;;;;;;;;;;;;;;;;;5060447;28;20653;-69
2023/12/04 06:48:51;;;;;;;;;;;;;;;;;;5053606;28;19939;-68
2023/12/04 06:51:18;;;;;;;;;;;;;;;;;;5050697;28;19932;-68
2023/12/04 06:53:45;;;;;;;;;;;;;;;;;;5045458;28;20015;-68
2023/12/04 06:56:12;;;;;;;;;;;;;;;;;;5056431;28;20306;-68
2023/12/04 06:58:39;;;;;;;;;;;;;;;;;;5047655;28;19964;-68
2023/12/04 07:01:06;;;;;;;;;;;;;;;;;;5045221;28;19936;-68
2023/12/04 07:03:34;;;;;;;;;;;;;;;;;;5055272;28;19924;-69
2023/12/04 07:06:01;;;;;;;;;;;;;;;;;;5059902;28;19925;-68
2023/12/04 07:08:31;;;;;;;;;;;;;;;;;;5061861;28;19925;-68
2023/12/04 07:10:58;;;;;;;;;;;;;;;;;;5059727;22;21773;-69
2023/12/04 07:13:25;;;;;;;;;;;;;;;;;;5028528;28;20432;-68
2023/12/04 07:15:53;;;;;;;;;;;;;;;;;;5033508;28;19979;-68
2023/12/04 07:18:20;;;;;;;;;;;;;;;;;;5027515;28;19983;-66
2023/12/04 07:20:47;;;;;;;;;;;;;;;;;;5030358;28;19956;-69
2023/12/04 07:23:14;;;;;;;;;;;;;;;;;;5023276;28;19956;-68
2023/12/04 07:25:41;;;;;;;;;;;;;;;;;;5020103;28;20383;-70
2023/12/04 07:28:08;;;;;;;;;;;;;;;;;;5027256;28;19925;-68
2023/12/04 07:30:35;;;;;;;;;;;;;;;;;;5032273;28;19933;-69
2023/12/04 07:33:02;;;;;;;;;;;;;;;;;;5028606;28;19925;-69
2023/12/04 07:35:29;;;;;;;;;;;;;;;;;;5023271;28;20269;-69
2023/12/04 07:37:56;;;;;;;;;;;;;;;;;;5032419;28;20000;-69
2023/12/04 07:40:23;;;;;;;;;;;;;;;;;;5025041;28;19925;-69
2023/12/04 07:42:50;;;;;;;;;;;;;;;;;;5029132;28;20014;-69
2023/12/04 07:45:17;;;;;;;;;;;;;;;;;;5018855;28;19933;-69
2023/12/04 07:47:44;;;;;;;;;;;;;;;;;;5028864;28;20367;-69
2023/12/04 07:50:11;;;;;;;;;;;;;;;;;;5023398;28;19987;-69
2023/12/04 07:52:38;;;;;;;;;;;;;;;;;;5029047;28;19925;-69
2023/12/04 07:55:05;;;;;;;;;;;;;;;;;;5025138;28;19929;-69
2023/12/04 07:57:32;;;;;;;;;;;;;;;;;;5033132;28;19972;-69
2023/12/04 08:00:00;;;;;;;;;;;;;;;;;;5031391;28;20293;-69
2023/12/04 08:02:27;;;;;;;;;;;;;;;;;;5027065;28;20003;-69
2023/12/04 08:04:54;;;;;;;;;;;;;;;;;;5024814;28;19972;-69
2023/12/04 08:07:21;;;;;;;;;;;;;;;;;;5031951;28;19925;-67
2023/12/04 08:09:48;;;;;;;;;;;;;;;;;;5031285;28;19939;-67
2023/12/04 08:12:15;;;;;;;;;;;;;;;;;;5029933;28;19964;-67
2023/12/04 08:14:42;;;;;;;;;;;;;;;;;;5032453;28;19925;-68
2023/12/04 08:17:09;;;;;;;;;;;;;;;;;;5028302;28;19929;-67
2023/12/04 08:19:37;;;;;;;;;;;;;;;;;;5029228;28;19925;-67
2023/12/04 08:22:04;;;;;;;;;;;;;;;;;;5025579;28;19960;-67
2023/12/04 08:24:31;;;;;;;;;;;;;;;;;;5024700;28;20287;-68
2023/12/04 08:26:57;;;;;;;;;;;;;;;;;;5032315;28;19925;-67
2023/12/04 08:29:24;;;;;;;;;;;;;;;;;;5037105;28;19925;-67
2023/12/04 08:31:51;;;;;;;;;;;;;;;;;;5027646;28;19925;-68
2023/12/04 08:34:18;;;;;;;;;;;;;;;;;;5030077;28;19925;-67
2023/12/04 08:36:45;;;;;;;;;;;;;;;;;;5030304;28;19999;-67
2023/12/04 08:39:12;;;;;;;;;;;;;;;;;;5017343;28;19926;-68
2023/12/04 08:41:39;;;;;;;;;;;;;;;;;;5015050;28;19933;-68
2023/12/04 08:44:06;;;;;;;;;;;;;;;;;;5013811;28;19976;-68
2023/12/04 08:46:33;;;;;;;;;;;;;;;;;;5032265;28;19925;-67
2023/12/04 08:49:00;;;;;;;;;;;;;;;;;;5030416;28;19929;-68
2023/12/04 08:51:27;;;;;;;;;;;;;;;;;;5028306;28;20139;-69
2023/12/04 08:53:54;;;;;;;;;;;;;;;;;;5019462;28;19972;-67
2023/12/04 08:56:21;;;;;;;;;;;;;;;;;;5018898;28;19925;-67
2023/12/04 08:58:50;;;;;;;;;;;;;;;;;;5028852;28;19925;-67
2023/12/04 09:01:17;;;;;;;;;;;;;;;;;;5023068;28;19969;-67
2023/12/04 09:03:43;;;;;;;;;;;;;;;;;;5023234;28;20051;-67
2023/12/04 09:06:10;;;;;;;;;;;;;;;;;;5025830;28;19952;-63
2023/12/04 09:08:37;;;;;;;;;;;;;;;;;;5031682;28;20020;-67
2023/12/04 09:11:04;;;;;;;;;;;;;;;;;;5029562;28;19983;-67
2023/12/04 09:13:32;;;;;;;;;;;;;;;;;;5023945;28;20020;-67
2023/12/04 09:15:59;;;;;;;;;;;;;;;;;;5017648;28;19930;-67
2023/12/04 09:18:26;;;;;;;;;;;;;;;;;;5015493;28;19925;-67
2023/12/04 09:20:53;;;;;;;;;;;;;;;;;;5028547;28;20321;-68
2023/12/04 09:23:20;;;;;;;;;;;;;;;;;;5025026;28;19979;-67
2023/12/04 09:25:47;;;;;;;;;;;;;;;;;;5025535;28;20008;-67
2023/12/04 09:28:14;;;;;;;;;;;;;;;;;;5022051;28;19925;-67
2023/12/04 09:30:41;;;;;;;;;;;;;;;;;;5018266;28;19929;-68
2023/12/04 09:33:08;;;;;;;;;;;;;;;;;;5028639;28;20384;-68
2023/12/04 09:35:35;;;;;;;;;;;;;;;;;;5025971;28;19925;-68
2023/12/04 09:38:03;;;;;;;;;;;;;;;;;;5044702;28;19925;-67
2023/12/04 09:40:30;;;;;;;;;;;;;;;;;;5027630;28;19990;-68
2023/12/04 09:42:57;;;;;;;;;;;;;;;;;;5031708;28;19925;-68
2023/12/04 09:45:24;;;;;;;;;;;;;;;;;;5026121;28;19930;-67
2023/12/04 09:47:51;;;;;;;;;;;;;;;;;;5021956;28;19983;-67
2023/12/04 09:50:20;;;;;;;;;;;;;;;;;;5028279;28;20468;-67
2023/12/04 09:52:49;;;;;;;;;;;;;;;;;;5030479;28;20458;-66
2023/12/04 09:55:16;;;;;;;;;;;;;;;;;;5042925;28;19990;-66
2023/12/04 09:57:43;;;;;;;;;;;;;;;;;;5027156;28;20352;-68
2023/12/04 10:00:10;;;;;;;;;;;;;;;;;;5024540;28;19925;-68
2023/12/04 10:02:37;;;;;;;;;;;;;;;;;;5019653;28;19925;-67
2023/12/04 10:05:05;;;;;;;;;;;;;;;;;;5029473;28;20384;-67
2023/12/04 10:07:32;;;;;;;;;;;;;;;;;;5023659;28;20307;-68
2023/12/04 10:09:59;;;;;;;;;;;;;;;;;;5029522;28;19934;-67
2023/12/04 10:12:26;;;;;;;;;;;;;;;;;;5044920;28;19932;-68
2023/12/04 10:14:53;;;;;;;;;;;;;;;;;;5020586;28;19925;-68
2023/12/04 10:17:21;;;;;;;;;;;;;;;;;;5024583;28;19972;-67
2023/12/04 10:19:48;;;;;;;;;;;;;;;;;;5020992;28;19968;-67
2023/12/04 10:22:15;;;;;;;;;;;;;;;;;;5028917;28;19957;-67
2023/12/04 10:24:42;;;;;;;;;;;;;;;;;;5026005;28;19979;-68
2023/12/04 10:27:11;;;;;;;;;;;;;;;;;;5012903;28;20102;-68
2023/12/04 10:29:38;;;;;;;;;;;;;;;;;;5039803;28;20405;-68
2023/12/04 10:32:05;;;;;;;;;;;;;;;;;;5026689;28;19971;-67
2023/12/04 10:34:33;;;;;;;;;;;;;;;;;;5030771;28;19932;-68
2023/12/04 10:37:00;;;;;;;;;;;;;;;;;;5028607;28;19937;-68
2023/12/04 10:39:28;;;;;;;;;;;;;;;;;;5030229;28;19925;-67
2023/12/04 10:41:55;;;;;;;;;;;;;;;;;;5020408;28;19991;-68
2023/12/04 10:44:22;;;;;;;;;;;;;;;;;;5027422;28;20395;-68
2023/12/04 10:46:49;;;;;;;;;;;;;;;;;;5016215;28;19979;-67
2023/12/04 10:49:18;;;;;;;;;;;;;;;;;;5016536;28;19925;-68
2023/12/04 10:51:46;;;;;;;;;;;;;;;;;;5030352;28;19932;-67
2023/12/04 10:54:13;;;;;;;;;;;;;;;;;;5020810;28;19925;-67
2023/12/04 10:56:40;;;;;;;;;;;;;;;;;;5030496;28;19975;-67
2023/12/04 10:59:07;;;;;;;;;;;;;;;;;;5031263;28;19925;-67
2023/12/04 11:01:34;;;;;;;;;;;;;;;;;;5035395;28;19924;-67
2023/12/04 11:04:01;;;;;;;;;;;;;;;;;;5046165;28;20388;-68
2023/12/04 11:06:30;;;;;;;;;;;;;;;;;;5027484;28;19929;-67
2023/12/04 11:08:57;;;;;;;;;;;;;;;;;;5018604;28;20387;-68
2023/12/04 11:11:24;;;;;;;;;;;;;;;;;;5032991;28;19925;-67
2023/12/04 11:13:51;;;;;;;;;;;;;;;;;;5033005;28;19925;-68
2023/12/04 11:16:18;;;;;;;;;;;;;;;;;;5022030;28;19926;-66
2023/12/04 11:18:45;;;;;;;;;;;;;;;;;;5020472;28;19979;-66
2023/12/04 11:21:12;;;;;;;;;;;;;;;;;;5030092;28;19929;-67
2023/12/04 11:23:39;;;;;;;;;;;;;;;;;;5033434;28;19925;-67
2023/12/04 11:26:06;;;;;;;;;;;;;;;;;;5034549;28;20003;-67
2023/12/04 11:28:33;;;;;;;;;;;;;;;;;;5029345;28;19925;-67
2023/12/04 11:31:00;;;;;;;;;;;;;;;;;;5017839;28;19929;-67
2023/12/04 11:33:27;;;;;;;;;;;;;;;;;;5031966;28;19929;-67
2023/12/04 11:35:54;;;;;;;;;;;;;;;;;;5040418;28;19933;-67
2023/12/04 11:38:21;;;;;;;;;;;;;;;;;;5033673;28;19953;-67
2023/12/04 11:40:48;;;;;;;;;;;;;;;;;;5015676;28;20563;-65
2023/12/04 11:43:15;;;;;;;;;;;;;;;;;;5020190;28;19933;-68
2023/12/04 11:45:42;;;;;;;;;;;;;;;;;;5024630;28;20383;-67
2023/12/04 11:48:09;;;;;;;;;;;;;;;;;;5017337;28;19925;-67
2023/12/04 11:50:36;;;;;;;;;;;;;;;;;;5032090;28;19947;-69
2023/12/04 11:53:04;;;;;;;;;;;;;;;;;;5028227;28;19932;-68
2023/12/04 11:55:31;;;;;;;;;;;;;;;;;;5026217;28;20366;-68
2023/12/04 11:57:58;;;;;;;;;;;;;;;;;;5029688;28;19925;-68
2023/12/04 12:00:25;;;;;;;;;;;;;;;;;;5030283;28;19987;-69
2023/12/04 12:02:52;;;;;;;;;;;;;;;;;;5029017;28;19929;-69
2023/12/04 12:05:19;;;;;;;;;;;;;;;;;;5030338;28;19933;-69
2023/12/04 12:07:46;;;;;;;;;;;;;;;;;;5022492;28;20066;-68
2023/12/04 12:10:13;;;;;;;;;;;;;;;;;;5023177;28;19986;-68
2023/12/04 12:12:40;;;;;;;;;;;;;;;;;;5024904;28;19973;-68
2023/12/04 12:15:07;;;;;;;;;;;;;;;;;;5026333;28;19929;-68
2023/12/04 12:17:34;;;;;;;;;;;;;;;;;;5018230;28;20392;-68
2023/12/04 12:20:03;;;;;;;;;;;;;;;;;;5024878;28;19933;-68
2023/12/04 12:22:30;;;;;;;;;;;;;;;;;;5030222;28;20398;-68
2023/12/04 12:24:57;;;;;;;;;;;;;;;;;;5028848;28;19933;-69
2023/12/04 12:27:24;;;;;;;;;;;;;;;;;;5024919;28;19983;-69
2023/12/04 12:29:51;;;;;;;;;;;;;;;;;;5030739;28;20339;-68
2023/12/04 12:32:18;;;;;;;;;;;;;;;;;;5027605;28;19979;-68
2023/12/04 12:34:45;;;;;;;;;;;;;;;;;;5024274;28;20430;-68
2023/12/04 12:37:12;;;;;;;;;;;;;;;;;;5018175;28;19929;-68
2023/12/04 12:39:40;;;;;;;;;;;;;;;;;;5026065;28;19933;-69
2023/12/04 12:42:07;;;;;;;;;;;;;;;;;;5023162;28;19971;-69
2023/12/04 12:44:34;;;;;;;;;;;;;;;;;;5032144;28;20019;-67
2023/12/04 12:47:01;;;;;;;;;;;;;;;;;;5020975;28;19952;-68
2023/12/04 12:49:28;;;;;;;;;;;;;;;;;;5026376;28;19925;-68
2023/12/04 12:51:55;;;;;;;;;;;;;;;;;;5031853;28;19979;-68
2023/12/04 12:54:22;;;;;;;;;;;;;;;;;;5023545;28;20020;-67
2023/12/04 12:56:49;;;;;;;;;;;;;;;;;;5021042;28;20335;-68
2023/12/04 12:59:17;;;;;;;;;;;;;;;;;;5025811;28;19979;-67
2023/12/04 13:01:44;;;;;;;;;;;;;;;;;;5025774;28;19932;-68
2023/12/04 13:04:11;;;;;;;;;;;;;;;;;;5024222;28;19975;-68
2023/12/04 13:06:38;;;;;;;;;;;;;;;;;;5031051;28;19925;-67
2023/12/04 13:09:06;;;;;;;;;;;;;;;;;;5017201;28;21093;-68
2023/12/04 13:11:33;;;;;;;;;;;;;;;;;;5017989;28;19925;-68
2023/12/04 13:14:00;;;;;;;;;;;;;;;;;;5029566;28;19925;-71
2023/12/04 13:16:27;;;;;;;;;;;;;;;;;;5018536;28;20416;-71
2023/12/04 13:18:54;;;;;;;;;;;;;;;;;;5026315;28;19952;-71
2023/12/04 13:21:20;;;;;;;;;;;;;;;;;;5011755;28;19972;-71
2023/12/04 13:23:47;;;;;;;;;;;;;;;;;;5016718;28;19932;-70
2023/12/04 13:26:15;;;;;;;;;;;;;;;;;;5022463;28;19972;-71
2023/12/04 13:28:42;;;;;;;;;;;;;;;;;;5016062;28;19925;-71
2023/12/04 13:31:09;;;;;;;;;;;;;;;;;;5016937;28;20025;-71
2023/12/04 13:33:36;;;;;;;;;;;;;;;;;;5018522;28;19965;-71
2023/12/04 13:36:04;;;;;;;;;;;;;;;;;;5017955;28;20018;-71
2023/12/04 13:38:31;;;;;;;;;;;;;;;;;;5022897;28;20043;-71
2023/12/04 13:41:08;;;;;;;;;;;;;;;;;;5025591;28;20099;-71
2023/12/04 13:43:52;;;;;;;;;;;;;;;;;;5023778;28;20003;-71
2023/12/04 13:46:19;;;;;;;;;;;;;;;;;;5025635;28;19983;-71
2023/12/04 13:48:46;;;;;;;;;;;;;;;;;;5018787;28;20477;-70
2023/12/04 13:51:14;;;;;;;;;;;;;;;;;;5020004;28;19971;-70
2023/12/04 13:53:44;;;;;;;;;;;;;;;;;;5024947;28;19948;-70
2023/12/04 13:56:25;;;;;;;;;;;;;;;;;;5030854;28;20439;-70
2023/12/04 13:58:56;;;;;;;;;;;;;;;;;;5028401;28;19929;-70
2023/12/04 14:01:24;;;;;;;;;;;;;;;;;;5016898;28;19925;-71
2023/12/04 14:03:51;;;;;;;;;;;;;;;;;;5014822;28;20335;-71
2023/12/04 14:06:18;;;;;;;;;;;;;;;;;;5024912;28;19937;-71
2023/12/04 14:08:45;;;;;;;;;;;;;;;;;;5017274;28;19933;-70
2023/12/04 14:11:14;;;;;;;;;;;;;;;;;;5026169;28;19975;-68
2023/12/04 14:13:41;;;;;;;;;;;;;;;;;;5022799;28;19925;-69
2023/12/04 14:16:08;;;;;;;;;;;;;;;;;;5021185;28;20063;-69
2023/12/04 14:18:35;;;;;;;;;;;;;;;;;;5023466;28;20063;-69
2023/12/04 14:21:02;;;;;;;;;;;;;;;;;;5025127;28;19941;-69
2023/12/04 14:23:29;;;;;;;;;;;;;;;;;;5018028;28;20005;-67
2023/12/04 14:25:56;;;;;;;;;;;;;;;;;;5023675;28;19929;-67
2023/12/04 14:28:23;;;;;;;;;;;;;;;;;;5029639;28;20438;-68
2023/12/04 14:30:50;;;;;;;;;;;;;;;;;;5029311;28;20048;-67
2023/12/04 14:33:17;;;;;;;;;;;;;;;;;;5018016;28;19940;-67
2023/12/04 14:35:44;;;;;;;;;;;;;;;;;;5031447;28;19937;-67
2023/12/04 14:38:11;;;;;;;;;;;;;;;;;;5021852;28;19992;-66
2023/12/04 14:40:39;;;;;;;;;;;;;;;;;;5014587;28;19926;-67
2023/12/04 14:43:09;;;;;;;;;;;;;;;;;;5029654;28;19925;-66
2023/12/04 14:45:36;;;;;;;;;;;;;;;;;;5028961;28;19940;-67
2023/12/04 14:48:07;;;;;;;;;;;;;;;;;;5027651;28;19937;-67
2023/12/04 14:50:34;;;;;;;;;;;;;;;;;;5030735;28;20019;-67
2023/12/04 14:53:14;;;;;;;;;;;;;;;;;;5028859;28;19925;-68
2023/12/04 14:56:49;;;;;;;;;;;;;;;;;;5023646;28;20284;-69
2023/12/04 14:59:24;;;;;;;;;;;;;;;;;;5027476;28;20384;-68
2023/12/04 15:16:02;;;;;;;;;;;;;;;;;;5029114;28;20038;-66
2023/12/04 15:18:36;;;;;;;;;;;;;;;;;;5030965;28;19925;-67
2023/12/04 15:21:03;;;;;;;;;;;;;;;;;;5031144;28;21059;-69
2023/12/04 15:23:29;;;;;;;;;;;;;;;;;;5029111;28;19926;-66
2023/12/04 15:25:56;;;;;;;;;;;;;;;;;;5024376;28;19932;-68
2023/12/04 15:28:22;;;;;;;;;;;;;;;;;;5026865;28;20560;-69
2023/12/04 15:30:49;;;;;;;;;;;;;;;;;;5029984;28;19925;-69
2023/12/04 15:33:15;;;;;;;;;;;;;;;;;;5025580;28;19926;-67
2023/12/04 15:35:42;;;;;;;;;;;;;;;;;;5028394;28;19933;-66
2023/12/04 15:38:08;;;;;;;;;;;;;;;;;;5026934;28;20014;-66
2023/12/04 15:40:35;;;;;;;;;;;;;;;;;;5026936;28;20008;-68
2023/12/04 15:43:01;;;;;;;;;;;;;;;;;;5027960;28;19984;-68
2023/12/04 15:45:29;;;;;;;;;;;;;;;;;;5024682;28;19933;-67
2023/12/04 15:47:55;;;;;;;;;;;;;;;;;;5027345;28;19978;-68
2023/12/04 15:50:22;;;;;;;;;;;;;;;;;;5027281;28;19960;-67
2023/12/04 15:52:48;;;;;;;;;;;;;;;;;;5025648;28;20381;-68
2023/12/04 15:55:22;;;;;;;;;;;;;;;;;;5022757;28;19932;-68
2023/12/04 15:57:54;;;;;;;;;;;;;;;;;;5019734;28;20380;-70
2023/12/04 16:00:21;;;;;;;;;;;;;;;;;;5020742;28;19932;-68
2023/12/04 16:02:48;;;;;;;;;;;;;;;;;;5015424;28;19925;-68
2023/12/04 16:05:15;;;;;;;;;;;;;;;;;;5026005;28;19929;-67
2023/12/04 16:07:43;;;;;;;;;;;;;;;;;;5029631;28;19955;-67
2023/12/04 16:10:10;;;;;;;;;;;;;;;;;;5027111;28;20002;-67
2023/12/04 16:12:37;;;;;;;;;;;;;;;;;;5020258;28;19925;-68
2023/12/04 16:15:04;;;;;;;;;;;;;;;;;;5017846;28;20006;-68
2023/12/04 16:17:31;;;;;;;;;;;;;;;;;;5026447;28;19933;-68
2023/12/04 16:19:59;;;;;;;;;;;;;;;;;;5023979;28;19973;-68
2023/12/04 16:22:26;;;;;;;;;;;;;;;;;;5019012;28;19925;-67
2023/12/04 16:24:54;;;;;;;;;;;;;;;;;;5029975;28;19926;-68
2023/12/04 16:27:21;;;;;;;;;;;;;;;;;;5031194;28;19976;-68
2023/12/04 16:29:48;;;;;;;;;;;;;;;;;;5029734;28;19929;-69
2023/12/04 16:32:15;;;;;;;;;;;;;;;;;;5024240;28;19972;-67
2023/12/04 16:34:42;;;;;;;;;;;;;;;;;;5021731;28;19971;-68
2023/12/04 16:37:09;;;;;;;;;;;;;;;;;;5031845;28;20014;-67
2023/12/04 16:39:36;;;;;;;;;;;;;;;;;;5027518;28;19933;-67
2023/12/04 16:42:04;;;;;;;;;;;;;;;;;;5018098;28;19929;-67
2023/12/04 16:44:31;;;;;;;;;;;;;;;;;;5016643;28;19925;-67
2023/12/04 16:46:58;;;;;;;;;;;;;;;;;;5015015;28;19987;-68
2023/12/04 16:49:26;;;;;;;;;;;;;;;;;;5028951;28;19925;-69
2023/12/04 16:51:53;;;;;;;;;;;;;;;;;;5026279;28;19929;-68
2023/12/04 16:54:22;;;;;;;;;;;;;;;;;;5032268;28;19972;-68
2023/12/04 16:56:49;;;;;;;;;;;;;;;;;;5025586;28;19932;-67
2023/12/04 16:59:19;;;;;;;;;;;;;;;;;;5027551;28;19925;-68
2023/12/04 17:01:46;;;;;;;;;;;;;;;;;;5026670;28;19929;-69